イスタンブル の空港の天気 - METARとTAF

アタテュルク国際空港(イスタンブル) ( LTBA / IST ) - トルコ イスタンブル
飛行場実況気象(Metar)
観測時間09/22 00:07 EET (09/21 21:07 UTC)
風向・風速南 2m/s
視程10km以上
天気現象弱いしゅう雨
少しの雲 雲底高度 760m
全天の8割程度の雲 雲底高度 910m
全天の8割程度の雲 雲底高度 2440m
気温18℃
湿度73%
気圧1012hPa
METARLTBA 212107Z 17004KT 070V230 9999 -SHRA FEW025CB BKN030 BKN080 18/13 Q1012 RETSRA NOSIG RMK RWY17L 23005KT 180V260 RWY05 VRB01KT RWY23 VRB03KT
過去の天気等 Google飛行場航空写真 Wunderground天気予報

過去48時間のMETAR

飛行場予報(TAF)
発表時間: 9/21 23:13 EET (9/21 20:13 UTC)
予報対象時間: 21日23時 EET ~ 23日3時 EET
風向・風速北 7m/s
視程10km以上
天気現象弱いしゅう雨
全天の4割程度の雲 雲底高度 910m
全天の8割程度の雲 雲底高度 2,740m
21日23時 EET ~ 22日3時 EET に一時的に
風向・風速西南西 9m/s 瞬間風速 18m/s
視程4,000m
天気現象雷雨
全天の8割程度の積乱雲 雲底高度 610m
全天の8割程度の雲 雲底高度 760m
22日2時 EET から 確率 30% で
天気現象弱い雷雨
全天の4割程度の積乱雲 雲底高度 610m
全天の8割程度の雲 雲底高度 760m
TAF AMD LTBA 212013Z 2120/2224 01013KT 9999 -SHRA SCT030 BKN090
TEMPO 2120/2124 24017G35KT 4000 TSRA BKN020CB BKN025
PROB30 2123/2202 -TSRA SCT020CB BKN025